Time;durP1;ratioP1;P1;durP2;ratioP2;P2;SDS_P1;SDS_P2;PMS_P1;PMS_P2;Temp;Humidity;BMP_temperature;BMP_pressure;BME280_temperature;BME280_humidity;BME280_pressure;Samples;Min_cycle;Max_cycle;Signal;HPM_P1;HPM_P2
2022/05/07 00:00:30;;;;;;;9.30;8.40;;;15.40;99.90;;;;;;5091967;28;20530;-86
2022/05/07 00:02:55;;;;;;;9.23;8.27;;;15.30;99.90;;;;;;5091962;28;20028;-86
2022/05/07 00:05:21;;;;;;;8.80;7.90;;;15.20;99.90;;;;;;5092058;28;20032;-86
2022/05/07 00:07:47;;;;;;;9.18;8.27;;;15.20;99.90;;;;;;5092173;28;20023;-86
2022/05/07 00:10:13;;;;;;;9.43;7.93;;;15.20;99.90;;;;;;5093380;28;20396;-86
2022/05/07 00:12:39;;;;;;;10.57;8.00;;;15.20;99.90;;;;;;5092727;28;20054;-86
2022/05/07 00:15:05;;;;;;;9.63;8.25;;;15.20;99.90;;;;;;5092325;28;20468;-87
2022/05/07 00:20:15;;;;;;;8.95;8.05;;;15.10;99.90;;;;;;5092190;28;20553;-86
2022/05/07 00:22:41;;;;;;;8.85;8.05;;;15.20;99.90;;;;;;5092348;28;20054;-86
2022/05/07 00:25:06;;;;;;;8.70;7.43;;;15.10;99.90;;;;;;5092844;28;20520;-87
2022/05/07 00:27:32;;;;;;;8.73;7.95;;;15.20;99.90;;;;;;5090881;28;20091;-86
2022/05/07 00:29:58;;;;;;;8.80;7.70;;;15.20;99.90;;;;;;5091957;28;20023;-86
2022/05/07 00:32:23;;;;;;;10.52;8.20;;;15.30;99.90;;;;;;5090945;28;20043;-86
2022/05/07 00:34:49;;;;;;;8.95;8.00;;;15.20;99.90;;;;;;5091384;28;20035;-85
2022/05/07 00:37:15;;;;;;;8.77;7.57;;;15.10;99.90;;;;;;5092103;28;20443;-86
2022/05/07 00:39:40;;;;;;;11.68;8.30;;;15.00;99.90;;;;;;5092494;28;20123;-86
2022/05/07 00:42:07;;;;;;;9.75;8.52;;;15.00;99.90;;;;;;5092145;28;20092;-86
2022/05/07 00:44:34;;;;;;;8.93;8.05;;;14.90;99.90;;;;;;5091759;28;20024;-86
2022/05/07 00:47:22;;;;;;;10.00;8.55;;;14.90;99.90;;;;;;5091759;28;20023;-86
2022/05/07 00:49:50;;;;;;;9.05;8.25;;;14.90;99.90;;;;;;5080285;28;20103;-86
2022/05/07 00:52:18;;;;;;;9.30;8.40;;;14.80;99.90;;;;;;5091842;28;20040;-86
2022/05/07 00:54:45;;;;;;;10.02;9.02;;;14.60;99.90;;;;;;5091288;28;20036;-86
2022/05/07 00:57:15;;;;;;;9.30;8.27;;;14.30;99.90;;;;;;5091628;28;20077;-86
2022/05/07 00:59:41;;;;;;;9.15;8.25;;;14.20;99.90;;;;;;5091527;28;20455;-86
2022/05/07 01:02:08;;;;;;;10.18;8.57;;;14.20;99.90;;;;;;5091703;28;20423;-86
2022/05/07 01:04:35;;;;;;;10.40;8.70;;;14.10;99.90;;;;;;5090838;28;20028;-86
2022/05/07 01:07:02;;;;;;;8.95;8.05;;;14.00;99.90;;;;;;5092535;28;20081;-86
2022/05/07 01:09:29;;;;;;;8.75;7.95;;;14.10;99.90;;;;;;5091358;28;20036;-86
2022/05/07 01:11:55;;;;;;;9.63;8.20;;;14.10;99.90;;;;;;5089689;28;20487;-87
2022/05/07 01:14:21;;;;;;;11.50;8.68;;;14.20;99.90;;;;;;5090148;28;20081;-86
2022/05/07 01:16:47;;;;;;;8.93;8.10;;;14.20;99.90;;;;;;5090443;28;20028;-86
2022/05/07 01:19:12;;;;;;;9.88;8.88;;;14.10;99.90;;;;;;5090781;28;20020;-87
2022/05/07 01:21:38;;;;;;;10.63;8.85;;;14.00;99.90;;;;;;5092122;28;20103;-87
2022/05/07 01:24:04;;;;;;;9.93;9.02;;;14.00;99.90;;;;;;5091491;28;20047;-86
2022/05/07 01:26:30;;;;;;;12.18;9.90;;;14.00;99.90;;;;;;5091388;28;20048;-86
2022/05/07 01:29:01;;;;;;;9.65;8.75;;;13.80;99.90;;;;;;5090118;28;20105;-86
2022/05/07 01:31:27;;;;;;;10.43;9.50;;;13.60;99.90;;;;;;5091275;28;20522;-86
2022/05/07 01:33:53;;;;;;;10.55;9.43;;;13.50;99.90;;;;;;5091077;28;20036;-86
2022/05/07 01:36:19;;;;;;;11.20;9.70;;;13.50;99.90;;;;;;5077970;28;20103;-86
2022/05/07 01:38:46;;;;;;;11.85;8.93;;;13.60;99.90;;;;;;5082234;28;20130;-87
2022/05/07 01:41:11;;;;;;;10.88;9.38;;;13.70;99.90;;;;;;5090528;28;20027;-86
2022/05/07 01:43:37;;;;;;;10.70;9.60;;;13.70;99.90;;;;;;5091294;28;20122;-86
2022/05/07 01:46:03;;;;;;;10.80;9.70;;;13.70;99.90;;;;;;5090646;28;20043;-87
2022/05/07 01:48:29;;;;;;;10.60;9.50;;;13.70;99.90;;;;;;5090380;28;20058;-87
2022/05/07 01:50:55;;;;;;;10.70;9.65;;;13.70;99.90;;;;;;5091307;28;20026;-86
2022/05/07 01:53:22;;;;;;;12.60;10.23;;;13.60;99.90;;;;;;5090920;28;20032;-86
2022/05/07 01:55:48;;;;;;;11.18;9.98;;;13.70;99.90;;;;;;5089890;28;20023;-86
2022/05/07 01:58:14;;;;;;;10.43;9.35;;;13.50;99.90;;;;;;5091602;28;20048;-86
2022/05/07 02:00:42;;;;;;;10.95;9.85;;;13.50;99.90;;;;;;5089678;28;20110;-85
2022/05/07 02:03:09;;;;;;;11.25;10.05;;;13.40;99.90;;;;;;5090049;28;20028;-86
2022/05/07 02:05:35;;;;;;;12.98;10.43;;;13.30;99.90;;;;;;5091814;28;20032;-86
2022/05/07 02:08:02;;;;;;;11.10;9.90;;;13.30;99.90;;;;;;5091103;28;20020;-87
2022/05/07 02:10:28;;;;;;;11.55;10.45;;;13.20;99.90;;;;;;5091169;28;20024;-86
2022/05/07 02:12:53;;;;;;;11.32;10.15;;;12.90;99.90;;;;;;5090443;28;20074;-86
2022/05/07 02:15:20;;;;;;;11.52;10.35;;;13.00;99.90;;;;;;5089718;28;20048;-86
2022/05/07 02:17:45;;;;;;;11.57;10.25;;;12.90;99.90;;;;;;5090543;28;20031;-86
2022/05/07 02:20:11;;;;;;;13.55;11.40;;;13.10;99.90;;;;;;5091095;28;20024;-86
2022/05/07 02:22:37;;;;;;;12.02;10.90;;;13.20;99.90;;;;;;5090586;28;20117;-86
2022/05/07 02:25:04;;;;;;;11.20;10.10;;;13.20;99.90;;;;;;5093432;28;20020;-86
2022/05/07 02:27:30;;;;;;;12.18;10.85;;;13.10;99.90;;;;;;5094153;28;20055;-86
2022/05/07 02:29:55;;;;;;;12.75;11.02;;;13.20;99.90;;;;;;5094267;28;20484;-86
2022/05/07 02:32:21;;;;;;;11.43;10.23;;;13.20;99.90;;;;;;5093905;28;20060;-86
2022/05/07 02:34:47;;;;;;;11.80;10.65;;;13.10;99.90;;;;;;5094600;28;20032;-86
2022/05/07 02:37:13;;;;;;;11.93;10.63;;;13.00;99.90;;;;;;5095519;28;20024;-86
2022/05/07 02:39:38;;;;;;;12.82;11.05;;;13.00;99.90;;;;;;5094300;28;20067;-86
2022/05/07 02:44:49;;;;;;;12.10;10.82;;;12.90;99.90;;;;;;5094095;28;20439;-86
2022/05/07 02:47:14;;;;;;;11.55;10.30;;;12.90;99.90;;;;;;5093807;28;20028;-86
2022/05/07 02:49:40;;;;;;;11.70;10.52;;;12.80;99.90;;;;;;5093908;28;20024;-85
2022/05/07 02:52:06;;;;;;;12.55;10.45;;;12.50;99.90;;;;;;5094769;28;20082;-86
2022/05/07 02:54:32;;;;;;;13.95;10.35;;;12.30;99.90;;;;;;5094286;28;20042;-86
2022/05/07 02:56:58;;;;;;;14.43;10.73;;;12.50;99.90;;;;;;5093777;28;20028;-86
2022/05/07 02:59:23;;;;;;;12.13;10.40;;;12.10;99.90;;;;;;5093322;28;20119;-87
2022/05/07 03:01:49;;;;;;;12.57;11.25;;;12.30;99.90;;;;;;5092229;28;20118;-86
2022/05/07 03:04:15;;;;;;;12.63;10.90;;;12.40;99.90;;;;;;5094187;28;20566;-86
2022/05/07 03:06:41;;;;;;;12.70;11.40;;;12.30;99.90;;;;;;5094266;28;20488;-86
2022/05/07 03:09:07;;;;;;;13.18;11.82;;;12.30;99.90;;;;;;5093498;28;20057;-86
2022/05/07 03:11:34;;;;;;;15.57;11.48;;;12.30;99.90;;;;;;5093508;28;20029;-86
2022/05/07 03:14:00;;;;;;;12.70;11.35;;;12.30;99.90;;;;;;5092950;28;20036;-86
2022/05/07 03:16:26;;;;;;;12.75;11.45;;;12.20;99.90;;;;;;5093516;28;20035;-86
2022/05/07 03:18:52;;;;;;;12.32;11.20;;;12.30;99.90;;;;;;5094334;28;20036;-86
2022/05/07 03:21:17;;;;;;;12.93;11.00;;;12.40;99.90;;;;;;5093245;28;20407;-86
2022/05/07 03:23:44;;;;;;;13.45;12.02;;;12.20;99.90;;;;;;5092471;28;20055;-86
2022/05/07 03:26:11;;;;;;;15.40;11.45;;;12.30;99.90;;;;;;5093618;28;20053;-86
2022/05/07 03:28:38;;;;;;;13.30;12.00;;;12.20;99.90;;;;;;5091742;28;20578;-86
2022/05/07 03:31:04;;;;;;;13.20;11.80;;;12.20;99.90;;;;;;5093566;28;20093;-86
2022/05/07 03:33:29;;;;;;;16.40;12.23;;;12.30;99.90;;;;;;5093281;28;20032;-86
2022/05/07 03:35:55;;;;;;;13.38;11.70;;;12.30;99.90;;;;;;5092896;28;20031;-86
2022/05/07 03:38:22;;;;;;;13.43;12.10;;;12.10;99.90;;;;;;5093068;28;20028;-86
2022/05/07 03:40:48;;;;;;;14.70;11.75;;;11.90;99.90;;;;;;5093042;28;20107;-86
2022/05/07 03:43:14;;;;;;;12.88;11.60;;;11.90;99.90;;;;;;5092740;28;20028;-86
2022/05/07 03:45:40;;;;;;;15.63;12.38;;;12.00;99.90;;;;;;5093328;28;20044;-86
2022/05/07 03:48:06;;;;;;;13.82;11.95;;;11.80;99.90;;;;;;5091474;28;20051;-86
2022/05/07 03:50:32;;;;;;;12.50;11.25;;;11.90;99.90;;;;;;5091450;28;20028;-86
2022/05/07 03:55:42;;;;;;;16.27;11.35;;;12.00;99.90;;;;;;5077431;28;20067;-86
2022/05/07 03:58:15;;;;;;;13.27;11.98;;;11.80;99.90;;;;;;5092659;28;20040;-86
2022/05/07 04:00:42;;;;;;;12.95;11.65;;;11.80;99.90;;;;;;5091643;28;20035;-86
2022/05/07 04:03:08;;;;;;;17.85;11.88;;;11.90;99.90;;;;;;5093123;28;20024;-87
2022/05/07 04:05:34;;;;;;;14.40;12.45;;;11.70;99.90;;;;;;5092971;28;20496;-86
2022/05/07 04:08:00;;;;;;;14.23;11.48;;;11.80;99.90;;;;;;5091447;28;20031;-86
2022/05/07 04:10:26;;;;;;;13.93;12.27;;;11.90;99.90;;;;;;5091223;28;20024;-85
2022/05/07 04:12:52;;;;;;;14.02;12.63;;;11.80;99.90;;;;;;5090085;28;20492;-86
2022/05/07 04:15:18;;;;;;;13.50;11.75;;;11.70;99.90;;;;;;5092539;28;20048;-86
2022/05/07 04:17:44;;;;;;;14.15;12.65;;;11.80;99.90;;;;;;5092448;28;20028;-86
2022/05/07 04:20:11;;;;;;;13.38;12.02;;;11.80;99.90;;;;;;5092382;28;20032;-86
2022/05/07 04:22:37;;;;;;;14.93;12.55;;;11.80;99.90;;;;;;5090341;28;20030;-86
2022/05/07 04:25:07;;;;;;;14.35;12.88;;;11.90;99.90;;;;;;5092401;28;20024;-86
2022/05/07 04:27:32;;;;;;;14.80;11.88;;;12.00;99.90;;;;;;5090798;28;20070;-85
2022/05/07 04:29:58;;;;;;;14.35;12.88;;;12.00;99.90;;;;;;5092071;28;20043;-86
2022/05/07 04:32:25;;;;;;;13.85;12.45;;;12.00;99.90;;;;;;5091954;28;20448;-86
2022/05/07 04:34:51;;;;;;;13.32;11.80;;;11.70;99.90;;;;;;5092452;28;20541;-86
2022/05/07 04:37:16;;;;;;;15.10;11.85;;;11.70;99.90;;;;;;5092113;28;20024;-86
2022/05/07 04:39:42;;;;;;;13.27;12.02;;;11.60;99.90;;;;;;5092378;28;20032;-85
2022/05/07 04:42:08;;;;;;;13.50;12.15;;;11.80;99.90;;;;;;5087226;28;20152;-86
2022/05/07 04:44:34;;;;;;;13.25;12.05;;;11.80;99.90;;;;;;5090461;28;20032;-86
2022/05/07 04:47:00;;;;;;;13.55;12.15;;;11.70;99.90;;;;;;5090827;28;20032;-86
2022/05/07 04:49:26;;;;;;;13.73;12.25;;;11.60;99.90;;;;;;5090636;28;20401;-86
2022/05/07 04:51:51;;;;;;;13.95;12.25;;;11.70;99.90;;;;;;5090333;28;20058;-86
2022/05/07 04:54:21;;;;;;;13.27;11.95;;;11.70;99.90;;;;;;5091670;28;20381;-86
2022/05/07 04:56:48;;;;;;;13.38;12.02;;;11.50;99.90;;;;;;5090608;28;20034;-86
2022/05/07 04:59:15;;;;;;;14.10;12.52;;;11.40;99.90;;;;;;5091369;28;20031;-86
2022/05/07 05:01:41;;;;;;;13.45;12.13;;;11.40;99.90;;;;;;5091629;28;20016;-86
2022/05/07 05:04:07;;;;;;;14.65;12.40;;;11.40;99.90;;;;;;5091917;28;20028;-87
2022/05/07 05:06:33;;;;;;;13.60;12.23;;;11.40;99.90;;;;;;5089648;28;20032;-86
2022/05/07 05:08:58;;;;;;;14.07;11.90;;;11.50;99.90;;;;;;5091326;28;20024;-85
2022/05/07 05:11:25;;;;;;;17.92;12.93;;;11.40;99.90;;;;;;5090822;28;20099;-85
2022/05/07 05:13:51;;;;;;;13.80;12.27;;;11.50;99.90;;;;;;5091276;28;20066;-85
2022/05/07 05:16:16;;;;;;;13.52;12.15;;;11.60;99.90;;;;;;5090580;28;20053;-84
2022/05/07 05:18:42;;;;;;;13.52;12.02;;;11.70;99.90;;;;;;5092134;28;20515;-85
2022/05/07 05:21:08;;;;;;;13.80;11.90;;;11.70;99.90;;;;;;5091568;28;20024;-85
2022/05/07 05:23:33;;;;;;;13.18;11.70;;;11.80;99.90;;;;;;5091883;28;20389;-86
2022/05/07 05:25:59;;;;;;;13.10;11.77;;;11.60;99.90;;;;;;5089233;28;20031;-86
2022/05/07 05:28:24;;;;;;;12.57;11.38;;;11.50;99.90;;;;;;5091379;28;20538;-87
2022/05/07 05:30:51;;;;;;;12.80;11.60;;;11.50;99.90;;;;;;5092100;28;20028;-87
2022/05/07 05:33:20;;;;;;;12.52;11.32;;;11.70;99.90;;;;;;5090799;28;20036;-86
2022/05/07 05:35:46;;;;;;;12.93;11.63;;;12.10;99.90;;;;;;5091266;28;20024;-86
2022/05/07 05:38:12;;;;;;;12.90;11.65;;;12.30;99.90;;;;;;5091230;28;20020;-86
2022/05/07 05:40:38;;;;;;;12.90;11.60;;;12.20;99.90;;;;;;5089150;28;22174;-87
2022/05/07 05:43:03;;;;;;;13.48;12.15;;;12.30;99.90;;;;;;5091747;28;20447;-86
2022/05/07 05:45:29;;;;;;;13.50;12.07;;;12.40;99.90;;;;;;5090806;28;20031;-86
2022/05/07 05:47:55;;;;;;;14.73;12.27;;;12.30;99.90;;;;;;5091102;28;20100;-87
2022/05/07 05:50:20;;;;;;;12.98;11.43;;;12.40;99.90;;;;;;5091348;28;20024;-86
2022/05/07 05:52:46;;;;;;;13.45;12.10;;;12.60;99.90;;;;;;5091134;28;20044;-87
2022/05/07 05:55:12;;;;;;;16.60;11.90;;;12.70;99.90;;;;;;5090680;28;20572;-87
2022/05/07 05:57:38;;;;;;;13.30;12.00;;;12.80;99.90;;;;;;5089847;28;20059;-86
2022/05/07 06:00:09;;;;;;;14.20;11.93;;;12.90;99.90;;;;;;5092984;28;20110;-86
2022/05/07 06:02:36;;;;;;;13.07;11.15;;;13.10;99.90;;;;;;5094912;28;20492;-87
2022/05/07 06:05:01;;;;;;;13.82;12.00;;;13.10;99.90;;;;;;5095012;28;20032;-86
2022/05/07 06:07:27;;;;;;;13.43;12.02;;;12.90;99.90;;;;;;5095114;28;20020;-87
2022/05/07 06:09:52;;;;;;;12.80;11.50;;;12.90;99.90;;;;;;5093140;28;20036;-87
2022/05/07 06:12:18;;;;;;;13.27;11.55;;;12.90;99.90;;;;;;5095091;28;20463;-87
2022/05/07 06:14:45;;;;;;;12.43;11.20;;;13.00;99.90;;;;;;5094862;28;20036;-87
2022/05/07 06:17:11;;;;;;;13.20;11.90;;;12.90;99.90;;;;;;5094684;28;20024;-86
2022/05/07 06:19:36;;;;;;;16.40;12.10;;;13.00;99.90;;;;;;5094650;28;20032;-87
2022/05/07 06:22:02;;;;;;;14.55;11.75;;;13.00;99.90;;;;;;5093291;28;20404;-86
2022/05/07 06:29:58;;;;;;;12.93;11.60;;;13.30;99.90;;;;;;5094662;28;20078;-87
2022/05/07 06:32:31;;;;;;;12.10;10.68;;;13.40;99.90;;;;;;5094183;28;20503;-87
2022/05/07 06:34:57;;;;;;;12.38;10.73;;;13.40;99.90;;;;;;5094366;28;20063;-87
2022/05/07 06:37:22;;;;;;;11.48;10.32;;;13.40;99.90;;;;;;5093622;28;20054;-87
2022/05/07 06:39:48;;;;;;;13.82;10.70;;;13.40;99.90;;;;;;5095235;28;20515;-87
2022/05/07 06:42:15;;;;;;;14.63;11.05;;;13.50;99.90;;;;;;5094235;28;20028;-86
2022/05/07 06:44:41;;;;;;;11.85;10.52;;;13.30;99.90;;;;;;5094045;28;20480;-87
2022/05/07 06:47:07;;;;;;;12.25;10.98;;;13.30;99.90;;;;;;5093291;28;20028;-87
2022/05/07 06:49:32;;;;;;;13.13;11.20;;;13.50;99.90;;;;;;5093761;28;20028;-87
2022/05/07 06:51:58;;;;;;;12.20;10.88;;;13.70;99.90;;;;;;5088263;28;20031;-86
2022/05/07 06:54:24;;;;;;;12.15;10.88;;;13.90;99.90;;;;;;5094258;28;20048;-87
2022/05/07 06:56:49;;;;;;;12.88;10.70;;;13.90;99.90;;;;;;5093566;28;20016;-86
2022/05/07 06:59:15;;;;;;;11.90;10.70;;;13.90;99.90;;;;;;5094244;28;20056;-95
2022/05/07 07:01:41;;;;;;;11.82;10.65;;;14.00;99.90;;;;;;5097461;28;20028;-92
2022/05/07 07:04:07;;;;;;;12.88;10.23;;;14.10;99.90;;;;;;5096457;28;20054;-95
2022/05/07 07:06:32;;;;;;;12.25;10.15;;;14.10;99.90;;;;;;5095693;28;20167;-91
2022/05/07 07:08:58;;;;;;;12.80;10.30;;;14.10;99.90;;;;;;5095791;28;20031;-92
2022/05/07 07:11:25;;;;;;;11.82;10.63;;;14.10;99.90;;;;;;5094415;28;20391;-92
2022/05/07 07:13:51;;;;;;;11.95;10.80;;;14.20;99.90;;;;;;5095412;28;20032;-93
2022/05/07 07:16:18;;;;;;;12.77;10.68;;;14.30;99.90;;;;;;5096353;28;20031;-91
2022/05/07 07:18:44;;;;;;;10.95;9.82;;;14.30;99.90;;;;;;5094516;28;20183;-92
2022/05/07 07:21:11;;;;;;;11.02;9.75;;;14.30;99.90;;;;;;5095001;28;20020;-92
2022/05/07 07:23:37;;;;;;;11.77;10.30;;;14.30;99.90;;;;;;5094720;28;20046;-92
2022/05/07 07:26:03;;;;;;;13.65;10.80;;;14.40;99.90;;;;;;5093813;28;20507;-91
2022/05/07 07:28:28;;;;;;;11.43;9.82;;;14.40;99.90;;;;;;5095230;28;20083;-92
2022/05/07 07:30:54;;;;;;;10.60;9.60;;;14.50;99.90;;;;;;5095136;28;20510;-92
2022/05/07 07:33:20;;;;;;;10.57;9.57;;;14.40;99.90;;;;;;5094922;28;20139;-93
2022/05/07 07:35:45;;;;;;;12.55;9.63;;;14.50;99.90;;;;;;5094935;28;20111;-92
2022/05/07 07:38:12;;;;;;;16.10;9.90;;;14.60;99.90;;;;;;5094148;28;20043;-92
2022/05/07 07:40:38;;;;;;;11.38;10.07;;;14.70;99.90;;;;;;5094848;28;20056;-92
2022/05/07 07:43:05;;;;;;;11.10;10.00;;;14.70;99.90;;;;;;5095623;28;20161;-92
2022/05/07 07:48:35;;;;;;;13.75;9.93;;;14.80;99.90;;;;;;5093089;28;20102;-92
2022/05/07 07:51:00;;;;;;;11.75;10.48;;;14.90;99.90;;;;;;5092541;28;20587;-92
2022/05/07 07:53:26;;;;;;;10.82;9.77;;;14.90;99.90;;;;;;5091778;28;20052;-92
2022/05/07 07:55:52;;;;;;;11.20;9.57;;;15.00;99.90;;;;;;5092704;28;20027;-92
2022/05/07 07:58:18;;;;;;;10.32;9.27;;;15.20;99.90;;;;;;5090756;28;20034;-92
2022/05/07 08:00:44;;;;;;;10.75;9.20;;;15.20;99.90;;;;;;5075749;28;20036;-92
2022/05/07 08:03:14;;;;;;;10.35;9.27;;;15.30;99.90;;;;;;5092258;28;20107;-91
2022/05/07 08:05:41;;;;;;;10.77;9.68;;;15.30;99.90;;;;;;5088454;28;20484;-92
2022/05/07 08:13:42;;;;;;;10.48;9.38;;;15.50;99.90;;;;;;5087076;28;20089;-92
2022/05/07 08:16:09;;;;;;;10.23;9.15;;;15.70;99.90;;;;;;5072865;28;20016;-92
2022/05/07 08:18:36;;;;;;;10.38;9.27;;;15.70;99.90;;;;;;5088453;28;20056;-92
2022/05/07 08:21:02;;;;;;;12.93;9.00;;;15.80;99.90;;;;;;5088948;28;20024;-92
2022/05/07 08:23:28;;;;;;;10.75;9.65;;;15.90;99.90;;;;;;5093225;28;20059;-92
2022/05/07 08:25:54;;;;;;;9.80;9.00;;;15.90;99.90;;;;;;5094154;28;20481;-92
2022/05/07 08:28:20;;;;;;;10.30;9.25;;;15.90;99.90;;;;;;5093060;28;20117;-92
2022/05/07 08:30:49;;;;;;;9.63;8.57;;;16.00;99.90;;;;;;5094039;28;20575;-92
2022/05/07 08:33:17;;;;;;;10.50;8.18;;;16.10;99.90;;;;;;5094043;28;20036;-91
2022/05/07 08:35:43;;;;;;;9.35;8.38;;;16.30;99.90;;;;;;5089072;28;20063;-92
2022/05/07 08:38:09;;;;;;;9.65;8.70;;;16.30;99.90;;;;;;5092671;28;20035;-91
2022/05/07 08:40:34;;;;;;;9.60;8.73;;;16.30;99.90;;;;;;5092437;28;20025;-91
2022/05/07 08:43:03;;;;;;;9.50;8.60;;;16.40;99.90;;;;;;5093315;28;20020;-92
2022/05/07 08:45:28;;;;;;;9.70;8.60;;;16.50;99.90;;;;;;5092371;28;20488;-91
2022/05/07 08:47:54;;;;;;;9.07;8.20;;;16.50;99.90;;;;;;5091938;28;20055;-91
2022/05/07 08:50:21;;;;;;;9.40;8.48;;;16.70;99.90;;;;;;5091936;28;20472;-92
2022/05/07 08:52:47;;;;;;;9.90;8.85;;;16.70;99.90;;;;;;5093455;28;20488;-92
2022/05/07 08:55:15;;;;;;;11.23;8.52;;;16.70;99.90;;;;;;5092495;28;20028;-91
2022/05/07 08:57:42;;;;;;;9.90;8.80;;;16.60;99.90;;;;;;5093278;28;20065;-92
2022/05/07 09:00:09;;;;;;;10.52;8.02;;;16.70;99.90;;;;;;5091885;28;20044;-91
2022/05/07 09:02:42;;;;;;;9.68;8.77;;;16.70;99.90;;;;;;5092590;28;20527;-91
2022/05/07 09:05:09;;;;;;;9.18;8.18;;;16.70;99.90;;;;;;5091890;28;20012;-93
2022/05/07 09:07:36;;;;;;;9.30;8.23;;;16.80;99.90;;;;;;5093248;28;20043;-91
2022/05/07 09:10:03;;;;;;;8.63;7.82;;;16.90;99.90;;;;;;5092767;28;20040;-91
2022/05/07 09:12:29;;;;;;;9.40;7.88;;;17.00;99.90;;;;;;5092531;28;20024;-92
2022/05/07 09:15:06;;;;;;;8.88;7.97;;;17.00;99.90;;;;;;5092713;28;20529;-91
2022/05/07 09:17:32;;;;;;;8.88;8.13;;;17.20;99.90;;;;;;5093096;28;20028;-91
2022/05/07 09:19:58;;;;;;;9.00;7.47;;;17.40;99.90;;;;;;5091678;28;20118;-92
2022/05/07 09:22:25;;;;;;;8.15;7.40;;;17.40;99.90;;;;;;5091952;28;20067;-91
2022/05/07 09:24:55;;;;;;;9.60;8.02;;;17.50;99.90;;;;;;5093207;28;20036;-91
2022/05/07 09:27:24;;;;;;;8.70;7.22;;;17.50;99.90;;;;;;5092277;28;20458;-91
2022/05/07 09:30:02;;;;;;;7.90;7.10;;;17.60;99.90;;;;;;5092664;28;20032;-91
2022/05/07 09:32:38;;;;;;;7.95;7.25;;;17.70;99.90;;;;;;5091146;28;20077;-91
2022/05/07 09:38:02;;;;;;;7.43;6.72;;;18.10;99.90;;;;;;5079717;28;20548;-92
2022/05/07 09:40:28;;;;;;;7.18;6.43;;;18.20;99.90;;;;;;5091595;28;20028;-91
2022/05/07 09:42:57;;;;;;;7.07;6.22;;;18.40;99.90;;;;;;5093302;28;20031;-91
2022/05/07 09:45:27;;;;;;;6.60;5.72;;;18.70;99.90;;;;;;5091678;28;20032;-92
2022/05/07 09:47:59;;;;;;;7.20;6.55;;;18.90;99.90;;;;;;5092197;28;20024;-92
2022/05/07 09:58:41;;;;;;;6.93;6.32;;;19.20;99.90;;;;;;5076538;28;20031;-92
2022/05/07 10:01:21;;;;;;;6.45;5.80;;;19.30;99.90;;;;;;5092918;28;20430;-92
2022/05/07 10:04:09;;;;;;;7.57;5.40;;;19.50;99.90;;;;;;5091436;28;20233;-92
2022/05/07 10:07:03;;;;;;;6.65;5.95;;;19.80;99.90;;;;;;5091078;28;20431;-92
2022/05/07 10:10:03;;;;;;;6.88;6.13;;;19.80;99.90;;;;;;5090909;28;20032;-92
2022/05/07 10:12:30;;;;;;;6.32;5.82;;;19.90;99.90;;;;;;5092095;28;20028;-92
2022/05/07 10:15:12;;;;;;;7.90;6.88;;;20.20;99.90;;;;;;5091820;28;20106;-91
2022/05/07 10:17:37;;;;;;;7.32;6.72;;;20.00;99.90;;;;;;5092104;28;20419;-92
2022/05/07 10:20:06;;;;;;;6.95;6.35;;;20.00;99.90;;;;;;5090434;28;20028;-91
2022/05/07 10:22:32;;;;;;;7.07;6.38;;;20.00;99.90;;;;;;5092156;28;20028;-92
2022/05/07 10:25:06;;;;;;;6.55;5.82;;;20.30;99.90;;;;;;5091741;28;20035;-91
2022/05/07 10:27:43;;;;;;;7.07;6.25;;;20.40;99.90;;;;;;5092018;28;20055;-92
2022/05/07 10:30:17;;;;;;;7.10;6.20;;;20.80;99.90;;;;;;5090500;28;20024;-92
2022/05/07 10:32:59;;;;;;;7.07;6.30;;;21.00;99.90;;;;;;5092025;28;20024;-91
2022/05/07 10:36:07;;;;;;;6.90;6.30;;;21.00;99.90;;;;;;5091929;28;20492;-90
2022/05/07 10:38:37;;;;;;;7.50;6.80;;;20.80;99.90;;;;;;5069382;28;20036;-92
2022/05/07 10:41:07;;;;;;;6.97;6.30;;;20.70;99.90;;;;;;5069526;28;20123;-92
2022/05/07 10:43:37;;;;;;;6.95;6.32;;;21.10;99.90;;;;;;5053749;28;20036;-92
2022/05/07 10:46:11;;;;;;;7.03;6.22;;;21.20;99.90;;;;;;5071950;28;20025;-92
2022/05/07 10:48:46;;;;;;;7.10;6.50;;;21.00;99.90;;;;;;5066033;28;20044;-92
2022/05/07 10:51:19;;;;;;;7.03;6.38;;;21.20;99.90;;;;;;5069801;28;20051;-92
2022/05/07 10:53:45;;;;;;;7.05;6.35;;;21.30;99.90;;;;;;5052730;28;20060;-91
2022/05/07 10:56:19;;;;;;;6.97;5.88;;;21.20;99.90;;;;;;5044771;28;20108;-92
2022/05/07 10:58:52;;;;;;;8.00;6.38;;;21.10;99.90;;;;;;5057032;28;20103;-92
2022/05/07 11:01:19;;;;;;;6.60;5.90;;;20.90;99.90;;;;;;5073398;28;20079;-92
2022/05/07 11:03:45;;;;;;;6.70;6.10;;;20.70;99.90;;;;;;5059900;28;20017;-92
2022/05/07 11:06:11;;;;;;;6.72;6.13;;;21.00;99.90;;;;;;5052716;28;20031;-92
2022/05/07 11:08:52;;;;;;;6.60;6.00;;;21.20;99.90;;;;;;5053376;28;20070;-92
2022/05/07 11:11:18;;;;;;;6.47;5.88;;;21.30;99.90;;;;;;5061653;28;20516;-91
2022/05/07 11:13:46;;;;;;;6.00;5.35;;;21.70;99.90;;;;;;5077680;28;20052;-91
2022/05/07 11:16:12;;;;;;;6.20;5.15;;;22.00;99.90;;;;;;5095868;28;20044;-91
2022/05/07 11:18:40;;;;;;;6.63;5.80;;;22.60;99.90;;;;;;5094944;28;20036;-92
2022/05/07 11:21:06;;;;;;;6.28;5.50;;;22.70;99.90;;;;;;5095012;28;20024;-91
2022/05/07 11:23:45;;;;;;;5.68;5.28;;;22.40;99.90;;;;;;5093447;28;20035;-91
2022/05/07 11:26:12;;;;;;;6.82;6.13;;;22.20;99.90;;;;;;5093993;28;20039;-92
2022/05/07 11:28:39;;;;;;;6.32;5.63;;;21.80;99.90;;;;;;5093022;28;20797;-91
2022/05/07 11:31:07;;;;;;;6.63;5.90;;;21.70;99.90;;;;;;5094499;28;20020;-91
2022/05/07 11:33:33;;;;;;;9.48;6.45;;;21.80;99.90;;;;;;5094588;28;20060;-92
2022/05/07 11:36:08;;;;;;;7.95;6.32;;;22.10;99.90;;;;;;5093351;28;20024;-92
2022/05/07 11:38:37;;;;;;;6.80;6.20;;;21.90;99.90;;;;;;5094465;28;20036;-91
2022/05/07 11:41:09;;;;;;;8.90;5.90;;;21.80;99.90;;;;;;5094644;28;20035;-92
2022/05/07 11:46:19;;;;;;;6.80;6.20;;;21.70;99.90;;;;;;5091946;28;20039;-91
2022/05/07 11:48:45;;;;;;;6.60;5.65;;;21.80;99.90;;;;;;5093603;28;20020;-91
2022/05/07 11:51:10;;;;;;;6.38;5.72;;;21.90;99.90;;;;;;5095648;28;20035;-91
2022/05/07 11:53:36;;;;;;;6.75;6.07;;;21.80;99.90;;;;;;5093258;28;20035;-91
2022/05/07 11:56:09;;;;;;;7.47;6.03;;;21.60;99.90;;;;;;5093779;28;20673;-92
2022/05/07 11:58:47;;;;;;;7.78;6.22;;;21.30;99.90;;;;;;5077573;28;20028;-91
2022/05/07 12:01:28;;;;;;;7.45;6.28;;;21.30;99.90;;;;;;5075084;28;20025;-91
2022/05/07 12:03:54;;;;;;;7.13;6.22;;;21.30;99.90;;;;;;5091496;28;20077;-91
2022/05/07 12:06:28;;;;;;;7.85;6.70;;;21.20;99.90;;;;;;5093744;28;20079;-91
2022/05/07 12:08:55;;;;;;;7.25;6.25;;;20.90;99.90;;;;;;5093860;28;20438;-91
2022/05/07 12:11:21;;;;;;;7.55;6.93;;;20.70;99.90;;;;;;5093169;28;20039;-91
2022/05/07 12:13:47;;;;;;;7.28;6.60;;;20.50;99.90;;;;;;5093857;28;20036;-89
2022/05/07 12:18:57;;;;;;;6.65;6.05;;;20.40;99.90;;;;;;5092739;28;20031;-92
2022/05/07 12:29:48;;;;;;;7.13;6.43;;;20.60;99.90;;;;;;5093382;28;20392;-91
2022/05/07 12:29:49;;;;;;;8.70;6.95;;;21.70;99.90;;;;;;5085306;28;20901;-92
2022/05/07 12:32:15;;;;;;;7.28;6.57;;;21.80;99.90;;;;;;5093572;28;20035;-91
2022/05/07 12:34:40;;;;;;;7.15;6.25;;;21.60;99.90;;;;;;5092502;28;20039;-92
2022/05/07 12:37:06;;;;;;;6.65;5.85;;;21.50;99.90;;;;;;5092501;28;20020;-91
2022/05/07 12:39:31;;;;;;;6.50;5.95;;;21.30;99.90;;;;;;5092483;28;20035;-92
2022/05/07 12:42:07;;;;;;;6.55;6.05;;;21.10;99.90;;;;;;5092853;28;20031;-92
2022/05/07 12:44:33;;;;;;;6.97;6.38;;;21.10;99.90;;;;;;5092496;28;20036;-92
2022/05/07 12:46:59;;;;;;;7.55;6.50;;;21.00;99.90;;;;;;5093550;28;20400;-92
2022/05/07 12:49:25;;;;;;;7.13;6.53;;;20.80;99.90;;;;;;5093940;28;20028;-91
2022/05/07 12:51:51;;;;;;;9.57;7.10;;;20.80;99.90;;;;;;5093833;28;20021;-91
2022/05/07 12:54:17;;;;;;;8.45;6.35;;;20.70;99.90;;;;;;5092527;28;20040;-91
2022/05/07 12:56:45;;;;;;;8.25;7.50;;;20.80;99.90;;;;;;5093117;28;20504;-91
2022/05/07 12:59:11;;;;;;;7.90;7.10;;;20.80;99.90;;;;;;5092480;28;20032;-91
2022/05/07 13:01:38;;;;;;;7.55;6.90;;;20.90;99.90;;;;;;5093120;28;20085;-91
2022/05/07 13:04:04;;;;;;;7.47;6.40;;;20.90;99.90;;;;;;5092011;28;20031;-91
2022/05/07 13:06:30;;;;;;;9.60;6.75;;;20.90;99.90;;;;;;5092683;28;20016;-91
2022/05/07 13:08:58;;;;;;;6.70;6.20;;;20.90;99.90;;;;;;5092241;28;20039;-92
2022/05/07 13:11:25;;;;;;;6.78;5.90;;;21.30;99.90;;;;;;5092535;28;20032;-91
2022/05/07 13:13:51;;;;;;;6.30;5.70;;;21.30;99.90;;;;;;5091899;28;20031;-92
2022/05/07 13:16:17;;;;;;;6.72;5.88;;;21.30;99.90;;;;;;5093321;28;20035;-91
2022/05/07 13:18:44;;;;;;;6.63;5.85;;;21.20;99.90;;;;;;5091439;28;20031;-92
2022/05/07 13:21:10;;;;;;;6.47;5.88;;;21.30;99.90;;;;;;5092382;28;20016;-91
2022/05/07 13:23:37;;;;;;;6.95;6.20;;;21.20;99.90;;;;;;5090879;28;20028;-92